createdAt,value
2022-08-01T00:01:24.830Z,56.17
2022-08-01T00:03:26.860Z,55.86
2022-08-01T00:05:28.910Z,55.72
2022-08-01T00:07:30.795Z,55.85
2022-08-01T00:09:32.966Z,55.84
2022-08-01T00:11:35.092Z,55.69
2022-08-01T00:13:37.412Z,55.94
2022-08-01T00:15:39.537Z,56.04
2022-08-01T00:17:42.381Z,55.76
2022-08-01T00:19:44.380Z,55.63
2022-08-01T00:21:51.769Z,55.49
2022-08-01T00:23:54.309Z,55.24
2022-08-01T00:25:56.347Z,55.31
2022-08-01T00:27:58.349Z,55.63
2022-08-01T00:30:11.729Z,55.74
2022-08-01T00:32:15.241Z,55.54
2022-08-01T00:34:17.276Z,55.76
2022-08-01T00:36:19.356Z,55.90
2022-08-01T00:38:21.356Z,56.07
2022-08-01T00:40:23.766Z,55.61
2022-08-01T00:42:25.805Z,55.08
2022-08-01T00:44:28.556Z,55.20
2022-08-01T00:46:30.752Z,55.36
2022-08-01T00:48:32.837Z,55.40
2022-08-01T00:50:35.621Z,55.17
2022-08-01T00:52:38.475Z,54.89
2022-08-01T00:54:41.346Z,54.38
2022-08-01T00:56:43.400Z,54.14
2022-08-01T00:58:45.651Z,54.25
2022-08-01T01:00:53.936Z,54.27
2022-08-01T01:02:56.902Z,54.15
2022-08-01T01:04:59.047Z,53.79
2022-08-01T01:07:04.097Z,53.94
2022-08-01T01:09:50.944Z,53.42
2022-08-01T01:12:26.834Z,53.26
2022-08-01T01:14:56.473Z,53.40
2022-08-01T01:17:01.486Z,53.41
2022-08-01T01:19:14.891Z,53.33
2022-08-01T01:21:25.059Z,53.36
2022-08-01T01:24:04.164Z,53.97
2022-08-01T01:26:35.300Z,54.22
2022-08-01T01:29:13.234Z,54.80
2022-08-01T01:31:20.488Z,55.05
2022-08-01T01:33:24.694Z,55.31
2022-08-01T01:35:29.991Z,55.45
2022-08-01T01:37:34.949Z,55.57
2022-08-01T01:39:39.779Z,55.51
2022-08-01T01:41:49.639Z,55.65
2022-08-01T01:43:52.287Z,55.88
2022-08-01T01:45:55.634Z,56.04
2022-08-01T01:47:59.828Z,56.00
2022-08-01T01:50:05.101Z,56.38
2022-08-01T01:52:09.266Z,56.16
2022-08-01T01:54:11.943Z,56.33
2022-08-01T01:56:17.600Z,56.35
2022-08-01T01:58:21.799Z,56.47
2022-08-01T02:00:25.215Z,56.62
2022-08-01T02:02:29.325Z,56.51
2022-08-01T02:04:32.313Z,56.47
2022-08-01T02:06:36.194Z,56.63
2022-08-01T02:08:41.067Z,56.58
2022-08-01T02:11:03.787Z,56.32
2022-08-01T02:13:07.762Z,56.29
2022-08-01T02:15:12.087Z,56.06
2022-08-01T02:17:18.419Z,56.62
2022-08-01T02:19:22.093Z,56.38
2022-08-01T02:21:31.689Z,56.62
2022-08-01T02:23:37.371Z,56.94
2022-08-01T02:26:10.359Z,56.73
2022-08-01T02:28:39.418Z,56.70
2022-08-01T02:30:47.467Z,56.84
2022-08-01T02:32:55.402Z,57.00
2022-08-01T02:34:58.804Z,57.00
2022-08-01T02:37:02.700Z,57.11
2022-08-01T02:39:19.553Z,57.21
2022-08-01T02:41:25.809Z,57.07
2022-08-01T02:43:31.386Z,57.19
2022-08-01T02:45:35.895Z,57.32
2022-08-01T02:47:39.705Z,57.23
2022-08-01T02:49:46.645Z,57.10
2022-08-01T02:51:58.419Z,57.17
2022-08-01T02:54:03.024Z,57.23
2022-08-01T02:56:10.620Z,57.26
2022-08-01T02:58:15.266Z,57.23
2022-08-01T03:00:19.525Z,57.46
2022-08-01T03:02:23.784Z,57.34
2022-08-01T03:04:27.573Z,56.88
2022-08-01T03:06:31.032Z,57.08
2022-08-01T03:08:34.612Z,56.93
2022-08-01T03:10:39.504Z,57.27
2022-08-01T03:12:42.830Z,57.05
2022-08-01T03:14:48.004Z,57.34
2022-08-01T03:16:53.996Z,57.44
2022-08-01T03:18:58.491Z,57.41
2022-08-01T03:21:02.900Z,57.43
2022-08-01T03:23:08.540Z,57.56
2022-08-01T03:25:14.828Z,57.55
2022-08-01T03:27:17.391Z,57.41
2022-08-01T03:29:25.712Z,57.56
2022-08-01T03:31:28.986Z,57.51
2022-08-01T03:33:31.182Z,57.63
2022-08-01T03:35:42.017Z,57.64
2022-08-01T03:38:14.181Z,57.69
2022-08-01T03:40:18.341Z,57.88
2022-08-01T03:42:30.157Z,57.89
2022-08-01T03:44:34.352Z,57.94
2022-08-01T03:46:48.976Z,57.85
2022-08-01T03:48:54.119Z,57.99
2022-08-01T03:50:57.735Z,58.25
2022-08-01T03:53:03.080Z,58.00
2022-08-01T03:55:10.563Z,58.05
2022-08-01T03:57:23.340Z,57.85
2022-08-01T03:59:37.627Z,57.89
2022-08-01T04:01:40.432Z,57.97
2022-08-01T04:03:43.147Z,58.06
2022-08-01T04:05:45.583Z,58.16
2022-08-01T04:07:49.535Z,58.16
2022-08-01T04:09:52.154Z,57.93
2022-08-01T04:11:54.047Z,57.89
2022-08-01T04:13:56.229Z,58.01
2022-08-01T04:15:59.633Z,58.04
2022-08-01T04:18:01.534Z,58.15
2022-08-01T04:20:04.058Z,58.09
2022-08-01T04:22:15.416Z,58.57
2022-08-01T04:24:20.531Z,58.47
2022-08-01T04:26:24.377Z,58.52
2022-08-01T04:28:26.702Z,58.60
2022-08-01T04:30:42.621Z,58.66
2022-08-01T04:32:47.855Z,58.83
2022-08-01T04:34:51.667Z,59.21
2022-08-01T04:36:57.740Z,59.16
2022-08-01T04:39:06.348Z,59.32
2022-08-01T04:41:12.141Z,59.60
2022-08-01T04:43:15.076Z,59.19
2022-08-01T04:45:17.575Z,59.35
2022-08-01T04:47:20.338Z,59.43
2022-08-01T04:49:22.821Z,59.41
2022-08-01T04:51:25.559Z,59.29
2022-08-01T04:53:28.956Z,59.39
2022-08-01T04:55:32.424Z,59.37
2022-08-01T04:57:37.407Z,59.32
2022-08-01T04:59:44.180Z,59.05
2022-08-01T05:01:50.060Z,59.20
2022-08-01T05:03:52.008Z,59.42
2022-08-01T05:05:53.894Z,59.64
2022-08-01T05:07:56.956Z,59.53
2022-08-01T05:09:58.893Z,59.49
2022-08-01T05:12:03.114Z,59.56
2022-08-01T05:14:05.109Z,59.69
2022-08-01T05:16:08.270Z,59.64
2022-08-01T05:18:09.980Z,59.79
2022-08-01T05:20:13.178Z,59.67
2022-08-01T05:22:14.875Z,59.68
2022-08-01T05:24:16.700Z,59.67
2022-08-01T05:26:18.663Z,59.57
2022-08-01T05:28:20.354Z,59.67
2022-08-01T05:30:22.073Z,59.76
2022-08-01T05:32:24.311Z,59.72
2022-08-01T05:34:26.949Z,59.49
2022-08-01T05:36:29.096Z,59.34
2022-08-01T05:38:30.809Z,59.36
2022-08-01T05:40:32.613Z,59.53
2022-08-01T05:42:35.617Z,59.41
2022-08-01T05:44:37.398Z,59.62
2022-08-01T05:46:39.473Z,59.37
2022-08-01T05:48:41.151Z,59.45
2022-08-01T05:50:43.088Z,59.52
2022-08-01T05:52:44.894Z,59.67
2022-08-01T05:54:46.616Z,59.79
2022-08-01T05:56:48.337Z,59.65
2022-08-01T05:58:53.095Z,59.72
2022-08-01T06:00:55.104Z,59.39
2022-08-01T06:02:56.905Z,59.28
2022-08-01T06:04:58.773Z,59.33
2022-08-01T06:07:07.831Z,59.25
2022-08-01T06:09:09.504Z,58.85
2022-08-01T06:11:11.189Z,58.67
2022-08-01T06:13:16.807Z,58.64
2022-08-01T06:15:18.544Z,58.85
2022-08-01T06:17:20.242Z,59.05
2022-08-01T06:19:21.909Z,58.65
2022-08-01T06:21:23.688Z,58.58
2022-08-01T06:23:31.985Z,58.76
2022-08-01T06:25:34.556Z,58.62
2022-08-01T06:27:36.654Z,58.58
2022-08-01T06:29:38.313Z,58.25
2022-08-01T06:31:39.963Z,58.62
2022-08-01T06:33:41.648Z,58.56
2022-08-01T06:35:43.488Z,58.74
2022-08-01T06:37:48.115Z,58.81
2022-08-01T06:39:50.740Z,58.80
2022-08-01T06:41:52.817Z,58.97
2022-08-01T06:43:54.531Z,58.90
2022-08-01T06:45:56.240Z,58.93
2022-08-01T06:47:57.941Z,58.69
2022-08-01T06:50:00.715Z,58.72
2022-08-01T06:52:02.519Z,58.63
2022-08-01T06:54:04.403Z,58.51
2022-08-01T06:56:07.579Z,58.53
2022-08-01T06:58:09.387Z,58.75
2022-08-01T07:00:13.692Z,58.67
2022-08-01T07:02:15.825Z,58.64
2022-08-01T07:04:18.146Z,58.59
2022-08-01T07:06:19.849Z,58.61
2022-08-01T07:08:22.363Z,58.51
2022-08-01T07:10:24.398Z,58.46
2022-08-01T07:12:26.139Z,58.48
2022-08-01T07:14:27.840Z,58.42
2022-08-01T07:16:29.611Z,58.27
2022-08-01T07:18:31.301Z,58.36
2022-08-01T07:20:37.671Z,58.34
2022-08-01T07:22:42.997Z,57.99
2022-08-01T07:24:45.897Z,58.01
2022-08-01T07:26:52.962Z,57.99
2022-08-01T07:28:56.337Z,58.21
2022-08-01T07:30:58.055Z,58.11
2022-08-01T07:32:59.928Z,58.26
2022-08-01T07:35:02.515Z,58.25
2022-08-01T07:37:07.696Z,58.34
2022-08-01T07:39:09.466Z,58.57
2022-08-01T07:41:12.842Z,58.52
2022-08-01T07:43:14.778Z,58.62
2022-08-01T07:45:17.866Z,58.52
2022-08-01T07:47:25.273Z,58.33
2022-08-01T07:49:27.020Z,57.73
2022-08-01T07:51:28.692Z,57.75
2022-08-01T07:53:30.413Z,57.75
2022-08-01T07:55:32.262Z,57.59
2022-08-01T07:57:33.916Z,57.35
2022-08-01T07:59:35.743Z,57.10
2022-08-01T08:01:37.495Z,57.26
2022-08-01T08:03:39.320Z,57.42
2022-08-01T08:05:58.097Z,57.12
2022-08-01T08:08:11.398Z,56.97
2022-08-01T08:10:13.075Z,56.97
2022-08-01T08:12:14.919Z,56.88
2022-08-01T08:14:20.191Z,56.60
2022-08-01T08:16:22.115Z,56.90
2022-08-01T08:18:24.123Z,56.66
2022-08-01T08:20:30.284Z,56.65
2022-08-01T08:22:32.734Z,56.20
2022-08-01T08:24:34.704Z,56.20
2022-08-01T08:26:36.563Z,56.26
2022-08-01T08:28:38.403Z,55.87
2022-08-01T08:30:42.228Z,56.11
2022-08-01T08:32:43.992Z,56.57
2022-08-01T08:34:45.711Z,56.01
2022-08-01T08:36:48.242Z,55.87
2022-08-01T08:38:51.331Z,55.87
2022-08-01T08:40:53.959Z,55.97
2022-08-01T08:42:56.029Z,55.90
2022-08-01T08:44:57.724Z,55.82
2022-08-01T08:47:13.791Z,55.66
2022-08-01T08:49:22.330Z,55.65
2022-08-01T08:51:27.928Z,55.82
2022-08-01T08:53:34.927Z,55.00
2022-08-01T08:55:56.209Z,55.10
2022-08-01T08:58:00.585Z,54.57
2022-08-01T09:00:02.438Z,54.51
2022-08-01T09:02:07.889Z,54.20
2022-08-01T09:04:11.345Z,53.94
2022-08-01T09:06:13.107Z,54.27
2022-08-01T09:08:14.799Z,54.06
2022-08-01T09:10:16.503Z,53.93
2022-08-01T09:12:19.708Z,54.06
2022-08-01T09:14:24.947Z,54.34
2022-08-01T09:16:26.831Z,54.44
2022-08-01T09:18:33.043Z,54.13
2022-08-01T09:20:37.534Z,54.48
2022-08-01T09:22:39.314Z,54.35
2022-08-01T09:24:42.887Z,54.32
2022-08-01T09:26:46.007Z,54.09
2022-08-01T09:28:48.995Z,53.93
2022-08-01T09:30:50.808Z,53.68
2022-08-01T09:33:11.223Z,53.28
2022-08-01T09:35:43.772Z,53.04
2022-08-01T09:37:47.321Z,53.16
2022-08-01T09:39:56.296Z,53.28
2022-08-01T09:42:01.026Z,52.99
2022-08-01T09:44:02.716Z,52.20
2022-08-01T09:46:15.069Z,51.97
2022-08-01T09:48:19.863Z,51.90
2022-08-01T09:50:24.656Z,51.03
2022-08-01T09:52:28.924Z,50.82
2022-08-01T09:54:34.993Z,50.70
2022-08-01T09:56:46.797Z,50.45
2022-08-01T09:59:00.465Z,49.69
2022-08-01T10:01:05.044Z,49.22
2022-08-01T10:03:24.222Z,48.82
2022-08-01T10:05:37.229Z,48.27
2022-08-01T10:07:59.126Z,48.56
2022-08-01T10:10:11.927Z,48.24
2022-08-01T10:12:17.660Z,47.88
2022-08-01T10:14:20.949Z,47.70
2022-08-01T10:16:24.588Z,47.88
2022-08-01T10:18:26.639Z,48.26
2022-08-01T10:20:31.413Z,48.33
2022-08-01T10:22:35.846Z,48.21
2022-08-01T10:24:41.436Z,47.85
2022-08-01T10:26:44.755Z,47.43
2022-08-01T10:28:49.945Z,47.26
2022-08-01T10:30:53.366Z,47.58
2022-08-01T10:32:56.474Z,47.09
2022-08-01T10:34:59.473Z,46.98
2022-08-01T10:37:13.952Z,47.29
2022-08-01T10:39:15.808Z,47.19
2022-08-01T10:41:22.810Z,46.90
2022-08-01T10:43:24.540Z,46.61
2022-08-01T10:45:27.665Z,46.01
2022-08-01T10:47:52.096Z,46.07
2022-08-01T10:50:12.677Z,46.23
2022-08-01T10:52:23.531Z,46.08
2022-08-01T10:54:27.075Z,45.98
2022-08-01T10:56:51.514Z,46.02
2022-08-01T10:59:02.383Z,46.26
2022-08-01T11:01:29.473Z,46.36
2022-08-01T11:03:55.961Z,45.57
2022-08-01T11:05:58.306Z,45.68
2022-08-01T11:08:07.060Z,45.41
2022-08-01T11:10:18.047Z,45.20
2022-08-01T11:12:24.690Z,45.05
2022-08-01T11:14:53.652Z,44.92
2022-08-01T11:16:48.892Z,45.17
2022-08-01T11:18:52.138Z,45.45
2022-08-01T11:21:56.266Z,45.45
2022-08-01T11:23:23.402Z,45.46
2022-08-01T11:26:04.765Z,45.55
2022-08-01T11:27:49.823Z,45.56
2022-08-01T11:30:13.302Z,45.36
2022-08-01T11:32:25.863Z,45.29
2022-08-01T11:34:55.490Z,44.98
2022-08-01T11:37:30.462Z,44.33
2022-08-01T11:39:38.297Z,43.69
2022-08-01T11:41:41.164Z,43.27
2022-08-01T11:44:06.756Z,42.48
2022-08-01T11:46:08.681Z,42.10
2022-08-01T11:48:19.984Z,41.87
2022-08-01T11:50:30.416Z,41.59
2022-08-01T11:52:37.333Z,41.73
2022-08-01T11:54:44.985Z,41.69
2022-08-01T11:56:46.859Z,42.17
2022-08-01T11:58:51.331Z,42.32
2022-08-01T12:00:57.388Z,42.29
2022-08-01T12:03:04.353Z,42.09
2022-08-01T12:05:17.655Z,41.68
2022-08-01T12:07:20.224Z,41.67
2022-08-01T12:09:24.577Z,41.12
2022-08-01T12:11:26.335Z,40.81
2022-08-01T12:13:43.269Z,40.78
2022-08-01T12:15:46.415Z,40.42
2022-08-01T12:17:58.815Z,40.50
2022-08-01T12:20:02.281Z,40.49
2022-08-01T12:22:14.353Z,40.71
2022-08-01T12:24:23.196Z,40.67
2022-08-01T12:26:40.462Z,40.11
2022-08-01T12:28:42.158Z,39.88
2022-08-01T12:30:50.243Z,39.70
2022-08-01T12:32:53.410Z,39.83
2022-08-01T12:34:56.874Z,40.03
2022-08-01T12:37:11.437Z,40.27
2022-08-01T12:39:13.503Z,40.30
2022-08-01T12:41:16.341Z,40.13
2022-08-01T12:43:27.816Z,39.50
2022-08-01T12:45:35.113Z,39.82
2022-08-01T12:47:39.484Z,39.21
2022-08-01T12:49:43.463Z,38.57
2022-08-01T12:51:45.450Z,38.09
2022-08-01T12:54:01.905Z,38.23
2022-08-01T12:56:03.724Z,38.51
2022-08-01T12:58:15.915Z,38.85
2022-08-01T13:00:25.836Z,38.93
2022-08-01T13:02:34.129Z,38.68
2022-08-01T13:04:51.656Z,38.55
2022-08-01T13:06:56.425Z,38.30
2022-08-01T13:09:14.662Z,37.93
2022-08-01T13:11:18.166Z,37.66
2022-08-01T13:13:28.635Z,36.41
2022-08-01T13:15:36.009Z,36.14
2022-08-01T13:17:43.729Z,35.58
2022-08-01T13:19:48.189Z,34.81
2022-08-01T13:21:58.038Z,34.74
2022-08-01T13:24:14.011Z,34.66
2022-08-01T13:26:15.768Z,34.45
2022-08-01T13:28:25.950Z,34.77
2022-08-01T13:30:27.646Z,34.73
2022-08-01T13:32:32.295Z,34.79
2022-08-01T13:34:35.464Z,34.46
2022-08-01T13:36:38.162Z,34.11
2022-08-01T13:38:59.342Z,33.72
2022-08-01T13:41:01.092Z,33.55
2022-08-01T13:43:02.813Z,33.63
2022-08-01T13:45:14.449Z,33.43
2022-08-01T13:47:17.112Z,33.54
2022-08-01T13:49:19.297Z,33.39
2022-08-01T13:51:22.628Z,33.35
2022-08-01T13:53:24.644Z,33.50
2022-08-01T13:55:29.893Z,34.16
2022-08-01T13:57:36.334Z,33.18
2022-08-01T13:59:39.007Z,32.26
2022-08-01T14:01:40.859Z,31.60
2022-08-01T14:03:42.828Z,31.43
2022-08-01T14:05:45.368Z,31.73
2022-08-01T14:07:48.516Z,32.29
2022-08-01T14:10:04.764Z,32.53
2022-08-01T14:12:12.427Z,32.57
2022-08-01T14:14:14.591Z,32.56
2022-08-01T14:16:17.328Z,32.15
2022-08-01T14:18:19.903Z,32.41
2022-08-01T14:20:21.705Z,32.29
2022-08-01T14:22:23.398Z,31.48
2022-08-01T14:24:27.321Z,31.78
2022-08-01T14:26:29.548Z,31.95
2022-08-01T14:28:31.984Z,32.00
2022-08-01T14:30:34.550Z,31.92
2022-08-01T14:32:36.365Z,32.07
2022-08-01T14:34:38.058Z,32.29
2022-08-01T14:36:39.870Z,32.35
2022-08-01T14:38:46.433Z,31.28
2022-08-01T14:40:52.196Z,31.50
2022-08-01T14:42:53.885Z,32.22
2022-08-01T14:44:55.631Z,32.43
2022-08-01T14:47:01.911Z,32.46
2022-08-01T14:49:18.061Z,32.41
2022-08-01T14:51:19.886Z,33.09
2022-08-01T14:53:21.790Z,33.03
2022-08-01T14:55:26.159Z,32.06
2022-08-01T14:57:28.115Z,32.43
2022-08-01T14:59:29.851Z,33.40
2022-08-01T15:01:31.659Z,33.30
2022-08-01T15:03:33.430Z,33.63
2022-08-01T15:05:35.134Z,34.35
2022-08-01T15:07:41.756Z,34.36
2022-08-01T15:09:54.139Z,34.43
2022-08-01T15:11:55.932Z,34.09
2022-08-01T15:14:16.071Z,34.27
2022-08-01T15:16:17.783Z,34.87
2022-08-01T15:18:19.476Z,34.87
2022-08-01T15:20:21.157Z,34.23
2022-08-01T15:22:24.706Z,34.12
2022-08-01T15:24:26.457Z,34.97
2022-08-01T15:26:29.269Z,35.11
2022-08-01T15:28:31.011Z,35.34
2022-08-01T15:30:33.973Z,35.83
2022-08-01T15:32:35.617Z,35.18
2022-08-01T15:34:38.735Z,35.33
2022-08-01T15:36:43.483Z,35.08
2022-08-01T15:38:45.365Z,35.14
2022-08-01T15:40:47.046Z,34.92
2022-08-01T15:42:48.736Z,35.30
2022-08-01T15:44:50.511Z,35.05
2022-08-01T15:46:52.276Z,35.40
2022-08-01T15:48:54.085Z,35.68
2022-08-01T15:50:55.850Z,35.58
2022-08-01T15:52:57.519Z,35.72
2022-08-01T15:54:59.508Z,35.54
2022-08-01T15:57:10.965Z,34.79
2022-08-01T15:59:12.837Z,34.76
2022-08-01T16:01:14.692Z,35.34
2022-08-01T16:03:16.434Z,36.00
2022-08-01T16:05:20.626Z,36.70
2022-08-01T16:07:23.163Z,37.04
2022-08-01T16:09:24.903Z,37.15
2022-08-01T16:11:28.722Z,36.53
2022-08-01T16:13:30.458Z,35.91
2022-08-01T16:15:36.077Z,35.89
2022-08-01T16:17:44.410Z,36.07
2022-08-01T16:19:46.524Z,35.84
2022-08-01T16:21:48.266Z,35.72
2022-08-01T16:23:50.024Z,35.48
2022-08-01T16:25:52.620Z,35.56
2022-08-01T16:27:54.511Z,35.59
2022-08-01T16:29:56.299Z,35.13
2022-08-01T16:32:03.405Z,34.96
2022-08-01T16:34:20.117Z,34.88
2022-08-01T16:36:25.285Z,34.69
2022-08-01T16:38:27.010Z,33.63
2022-08-01T16:40:28.820Z,33.75
2022-08-01T16:42:31.142Z,33.11
2022-08-01T16:44:33.756Z,33.56
2022-08-01T16:46:36.128Z,33.58
2022-08-01T16:48:37.861Z,33.74
2022-08-01T16:50:39.939Z,33.88
2022-08-01T16:52:42.333Z,33.96
2022-08-01T16:54:44.118Z,34.55
2022-08-01T16:56:49.294Z,35.06
2022-08-01T16:58:53.602Z,35.23
2022-08-01T17:00:57.612Z,35.50
2022-08-01T17:02:59.534Z,36.42
2022-08-01T17:05:07.296Z,36.87
2022-08-01T17:07:13.964Z,37.24
2022-08-01T17:09:16.301Z,37.36
2022-08-01T17:11:18.021Z,37.31
2022-08-01T17:13:22.755Z,37.87
2022-08-01T17:15:24.554Z,37.89
2022-08-01T17:17:27.739Z,40.38
2022-08-01T17:19:33.286Z,41.11
2022-08-01T17:21:38.874Z,42.16
2022-08-01T17:23:42.923Z,42.95
2022-08-01T17:25:45.081Z,43.47
2022-08-01T17:27:46.819Z,43.88
2022-08-01T17:29:48.730Z,43.54
2022-08-01T17:31:50.407Z,43.81
2022-08-01T17:33:55.007Z,43.43
2022-08-01T17:35:57.172Z,43.78
2022-08-01T17:37:58.910Z,44.28
2022-08-01T17:40:03.501Z,43.96
2022-08-01T17:42:09.321Z,44.58
2022-08-01T17:44:11.557Z,44.85
2022-08-01T17:46:13.283Z,44.65
2022-08-01T17:48:17.538Z,44.49
2022-08-01T17:50:19.390Z,44.25
2022-08-01T17:52:21.790Z,44.63
2022-08-01T17:54:23.541Z,44.45
2022-08-01T17:56:27.216Z,44.37
2022-08-01T17:58:36.811Z,44.75
2022-08-01T18:00:50.754Z,44.84
2022-08-01T18:02:52.474Z,44.66
2022-08-01T18:04:54.391Z,45.02
2022-08-01T18:06:58.128Z,45.35
2022-08-01T18:09:01.790Z,45.01
2022-08-01T18:11:03.774Z,45.22
2022-08-01T18:13:05.935Z,45.26
2022-08-01T18:15:08.014Z,44.93
2022-08-01T18:17:11.493Z,44.87
2022-08-01T18:19:13.387Z,45.31
2022-08-01T18:21:15.103Z,45.03
2022-08-01T18:23:17.227Z,45.35
2022-08-01T18:25:20.055Z,45.60
2022-08-01T18:27:21.712Z,45.65
2022-08-01T18:29:47.695Z,45.63
2022-08-01T18:31:45.626Z,45.61
2022-08-01T18:33:47.433Z,46.09
2022-08-01T18:35:52.190Z,46.51
2022-08-01T18:37:55.411Z,46.63
2022-08-01T18:39:57.390Z,47.15
2022-08-01T18:42:00.213Z,47.17
2022-08-01T18:44:07.951Z,47.15
2022-08-01T18:46:10.811Z,47.24
2022-08-01T18:48:12.824Z,47.41
2022-08-01T18:50:15.185Z,47.43
2022-08-01T18:52:17.034Z,47.62
2022-08-01T18:54:18.840Z,47.76
2022-08-01T18:56:20.553Z,47.67
2022-08-01T18:58:22.383Z,47.88
2022-08-01T19:00:24.401Z,47.97
2022-08-01T19:02:26.103Z,47.88
2022-08-01T19:04:28.151Z,48.17
2022-08-01T19:06:29.865Z,48.51
2022-08-01T19:08:31.658Z,48.31
2022-08-01T19:10:33.923Z,48.52
2022-08-01T19:12:35.867Z,48.29
2022-08-01T19:14:37.710Z,48.33
2022-08-01T19:16:39.561Z,48.52
2022-08-01T19:18:41.421Z,48.49
2022-08-01T19:20:44.977Z,48.86
2022-08-01T19:22:47.043Z,48.73
2022-08-01T19:24:48.914Z,48.98
2022-08-01T19:26:51.201Z,49.10
2022-08-01T19:29:01.709Z,49.07
2022-08-01T19:31:03.907Z,49.33
2022-08-01T19:33:07.117Z,49.14
2022-08-01T19:35:13.993Z,49.15
2022-08-01T19:37:16.411Z,49.54
2022-08-01T19:39:23.919Z,49.51
2022-08-01T19:41:26.312Z,49.45
2022-08-01T19:43:28.588Z,49.05
2022-08-01T19:45:30.565Z,49.23
2022-08-01T19:47:52.115Z,48.99
2022-08-01T19:49:55.632Z,48.96
2022-08-01T19:52:02.641Z,49.00
2022-08-01T19:54:06.850Z,48.92
2022-08-01T19:56:09.945Z,49.09
2022-08-01T19:58:29.338Z,48.98
2022-08-01T20:00:31.665Z,48.97
2022-08-01T20:02:35.443Z,49.14
2022-08-01T20:04:37.670Z,49.18
2022-08-01T20:06:39.911Z,49.22
2022-08-01T20:08:42.348Z,49.11
2022-08-01T20:10:49.261Z,49.14
2022-08-01T20:12:52.891Z,49.35
2022-08-01T20:14:56.609Z,49.52
2022-08-01T20:17:11.880Z,49.50
2022-08-01T20:19:15.864Z,49.45
2022-08-01T20:21:19.434Z,49.17
2022-08-01T20:23:24.028Z,49.23
2022-08-01T20:25:39.385Z,49.12
2022-08-01T20:27:45.690Z,49.09
2022-08-01T20:29:50.130Z,49.13
2022-08-01T20:31:52.366Z,49.28
2022-08-01T20:33:54.485Z,49.25
2022-08-01T20:35:56.523Z,49.40
2022-08-01T20:38:06.783Z,49.34
2022-08-01T20:40:12.303Z,49.17
2022-08-01T20:42:14.961Z,49.28
2022-08-01T20:44:19.858Z,49.08
2022-08-01T20:46:27.761Z,49.13
2022-08-01T20:48:31.400Z,48.73
2022-08-01T20:50:54.780Z,49.06
2022-08-01T20:52:57.153Z,48.79
2022-08-01T20:54:59.138Z,48.92
2022-08-01T20:57:20.671Z,48.91
2022-08-01T20:59:56.606Z,49.00
2022-08-01T21:02:09.256Z,48.80
2022-08-01T21:04:17.201Z,48.00
2022-08-01T21:06:26.529Z,48.29
2022-08-01T21:08:39.673Z,48.27
2022-08-01T21:10:46.059Z,48.02
2022-08-01T21:13:10.908Z,48.06
2022-08-01T21:15:25.470Z,47.94
2022-08-01T21:17:45.218Z,47.79
2022-08-01T21:19:51.512Z,47.18
2022-08-01T21:22:15.899Z,46.74
2022-08-01T21:24:19.338Z,46.68
2022-08-01T21:26:22.161Z,46.47
2022-08-01T21:28:25.867Z,46.34
2022-08-01T21:30:30.456Z,46.41
2022-08-01T21:32:34.526Z,46.33
2022-08-01T21:34:39.791Z,46.30
2022-08-01T21:36:44.601Z,46.33
2022-08-01T21:38:49.003Z,46.30
2022-08-01T21:40:55.555Z,46.14
2022-08-01T21:43:01.148Z,45.70
2022-08-01T21:45:04.110Z,46.03
2022-08-01T21:47:14.001Z,46.10
2022-08-01T21:49:16.029Z,45.69
2022-08-01T21:51:38.321Z,45.79
2022-08-01T21:53:52.743Z,45.67
2022-08-01T21:56:15.120Z,45.71
2022-08-01T21:58:26.456Z,45.53
2022-08-01T22:00:28.711Z,45.78
2022-08-01T22:02:37.985Z,45.75
2022-08-01T22:05:01.454Z,45.78
2022-08-01T22:07:15.842Z,45.55
2022-08-01T22:09:21.887Z,45.74
2022-08-01T22:11:29.421Z,45.68
2022-08-01T22:13:39.525Z,45.57
2022-08-01T22:15:45.154Z,45.67
2022-08-01T22:17:49.848Z,45.73
2022-08-01T22:19:55.175Z,45.70
2022-08-01T22:21:57.677Z,45.65
2022-08-01T22:23:59.937Z,45.96
2022-08-01T22:26:05.756Z,46.07
2022-08-01T22:28:10.241Z,45.88
2022-08-01T22:30:14.349Z,46.47
2022-08-01T22:32:16.289Z,46.21
2022-08-01T22:34:19.239Z,46.49
2022-08-01T22:36:22.680Z,46.50
2022-08-01T22:38:24.874Z,46.44
2022-08-01T22:40:26.879Z,46.50
2022-08-01T22:42:33.496Z,46.64
2022-08-01T22:44:46.743Z,46.77
2022-08-01T22:47:10.629Z,46.85
2022-08-01T22:49:24.351Z,47.08
2022-08-01T22:51:37.267Z,46.96
2022-08-01T22:53:53.568Z,47.22
2022-08-01T22:55:58.310Z,47.17
2022-08-01T22:58:04.232Z,47.15
2022-08-01T23:00:09.763Z,47.37
2022-08-01T23:02:16.599Z,47.79
2022-08-01T23:04:48.840Z,47.63
2022-08-01T23:06:54.897Z,47.93
2022-08-01T23:08:58.334Z,47.98
2022-08-01T23:11:03.572Z,48.18
2022-08-01T23:13:06.364Z,48.21
2022-08-01T23:15:09.036Z,47.95
2022-08-01T23:17:27.388Z,48.55
2022-08-01T23:19:34.085Z,48.59
2022-08-01T23:21:41.736Z,48.69
2022-08-01T23:23:46.747Z,48.87
2022-08-01T23:25:49.558Z,48.95
2022-08-01T23:28:05.511Z,48.69
2022-08-01T23:30:08.757Z,48.96
2022-08-01T23:32:10.836Z,49.44
2022-08-01T23:34:17.887Z,49.45
2022-08-01T23:36:21.785Z,49.51
2022-08-01T23:38:23.921Z,49.75
2022-08-01T23:40:26.880Z,49.93
2022-08-01T23:42:28.799Z,49.92
2022-08-01T23:44:30.815Z,50.01
2022-08-01T23:46:32.790Z,49.80
2022-08-01T23:48:36.157Z,49.87
2022-08-01T23:50:38.185Z,50.00
2022-08-01T23:52:48.402Z,49.80
2022-08-01T23:54:51.795Z,49.94
2022-08-01T23:56:54.744Z,49.91
2022-08-01T23:59:01.396Z,50.04
